Hinkley, CA (92347)

7:31 AM PDT on July 25, 2016 (GMT -0700)
Silver Lakes / Helendale | | Change Station

Elev 2438 ft 34.76 °N, 117.33 °W | Updated 13 minutes ago

Clear
Clear
78.9 °F
Feels Like 78 °F
N
1.0
Wind Variable Wind from SW
Gusts 4.0 mph

Today
High -- | Low -- °F
--% Chance of Precip.
Yesterday
High -- | Low -- °F
Precip. -- in
Pressure 29.84 in
Visibility 10.0 miles
Clouds Clear
Heat Index 78 °F
Dew Point 42 °F
Humidity 27%
Rainfall 0.00 in
Snow Depth Not available.
5:53 AM 7:56 PM
Waning Gibbous, 65% visible
METAR KDAG 251350Z AUTO 26007KT 10SM CLR 27/01 A2994 RMK AO2 SLP105 T02670006
Pressure 29.84 in
Visibility 10.0 miles
Clouds Clear
Heat Index 78 °F
Dew Point 42 °F
Humidity 27%
Rainfall 0.00 in
Snow Depth Not available.
5:53 AM 7:56 PM
Waning Gibbous, 65% visible
METAR KDAG 251350Z AUTO 26007KT 10SM CLR 27/01 A2994 RMK AO2 SLP105 T02670006

10-Day Weather Forecast

Almanac

Astronomy

Jul. 25, 2016 Rise Set
Actual Time
Civil Twilight
Nautical Twilight
Astronomical Twilight
Moon
Length of Visible Light
Length of Day
Tomorrow will be .
, % of the Moon is Illuminated

Today's Extremes

State Highs State Lows

Community

WunderPhotos

Upload Photos

1,927,305 photos uploaded!

WunderBlog® & News

Nearby

Air Quality

  Air Quality AQ Index Pollutant
Not available.

Snow Depth

Station Depth Elevation

Earthquake Activity

City Distance Mag. Time & Date
Minimum magnitude displayed is 2.5.

Coastal Water Temperatures

Place Temperature

Stations

Nearby Weather Stations

Station Location Temp. Windchill Dew Point Humidity Wind Precip. Elev Updated Type
                   

Watches & Warnings

There are currently no watches in effect.